createdAt,value
2018-06-30T00:00:31.440Z,66.82
2018-06-30T00:01:48.138Z,67.20
2018-06-30T00:04:06.789Z,67.40
2018-06-30T00:05:12.434Z,67.36
2018-06-30T00:06:04.449Z,66.97
2018-06-30T00:08:32.827Z,67.36
2018-06-30T00:09:17.680Z,67.26
2018-06-30T00:11:47.080Z,67.46
2018-06-30T00:13:52.324Z,67.36
2018-06-30T00:15:57.963Z,68.04
2018-06-30T00:17:04.940Z,67.65
2018-06-30T00:18:12.312Z,67.84
2018-06-30T00:19:26.653Z,68.32
2018-06-30T00:22:28.518Z,68.61
2018-06-30T00:23:43.482Z,68.13
2018-06-30T00:24:36.731Z,68.04
2018-06-30T00:25:44.820Z,68.13
2018-06-30T00:26:56.606Z,68.13
2018-06-30T00:27:52.000Z,68.32
2018-06-30T00:29:02.351Z,68.71
2018-06-30T00:30:18.437Z,68.99
2018-06-30T00:32:29.820Z,68.90
2018-06-30T00:35:37.207Z,69.57
2018-06-30T00:36:53.906Z,69.38
2018-06-30T00:37:41.932Z,69.57
2018-06-30T00:38:56.070Z,70.15
2018-06-30T00:40:01.094Z,69.48
2018-06-30T00:41:01.614Z,69.67
2018-06-30T00:42:13.805Z,69.67
2018-06-30T00:43:20.060Z,69.87
2018-06-30T00:44:15.049Z,69.96
2018-06-30T00:45:27.341Z,70.35
2018-06-30T00:47:28.891Z,70.35
2018-06-30T00:48:46.001Z,70.25
2018-06-30T00:49:51.126Z,70.15
2018-06-30T00:50:53.795Z,70.06
2018-06-30T00:52:07.120Z,70.54
2018-06-30T00:53:08.350Z,70.64
2018-06-30T00:54:09.073Z,70.06
2018-06-30T00:55:12.471Z,70.54
2018-06-30T00:56:20.352Z,70.64
2018-06-30T00:57:24.761Z,70.64
2018-06-30T00:59:42.047Z,71.28
2018-06-30T01:00:42.191Z,70.89
2018-06-30T01:01:58.478Z,71.18
2018-06-30T01:02:54.697Z,71.56
2018-06-30T01:05:09.971Z,71.37
2018-06-30T01:06:09.265Z,71.37
2018-06-30T01:08:15.621Z,72.11
2018-06-30T01:09:22.795Z,71.72
2018-06-30T01:10:31.812Z,72.39
2018-06-30T01:11:40.625Z,72.39
2018-06-30T01:12:40.428Z,72.59
2018-06-30T01:13:51.391Z,72.49
2018-06-30T01:14:53.249Z,72.68
2018-06-30T01:16:08.724Z,72.78
2018-06-30T01:16:59.808Z,73.46
2018-06-30T01:18:11.056Z,73.55
2018-06-30T01:21:27.382Z,73.42
2018-06-30T01:22:35.990Z,74.09
2018-06-30T01:23:39.068Z,73.90
2018-06-30T01:24:46.345Z,74.09
2018-06-30T01:25:42.359Z,74.19
2018-06-30T01:27:01.515Z,74.09
2018-06-30T01:28:01.010Z,74.38
2018-06-30T01:30:12.902Z,75.15
2018-06-30T01:31:20.895Z,74.57
2018-06-30T01:32:20.561Z,74.76
2018-06-30T01:33:28.794Z,74.86
2018-06-30T01:34:30.746Z,75.49
2018-06-30T01:35:39.867Z,75.79
2018-06-30T01:36:46.735Z,75.40
2018-06-30T01:37:57.698Z,75.49
2018-06-30T01:39:01.187Z,75.98
2018-06-30T01:39:58.633Z,75.79
2018-06-30T01:41:07.753Z,75.69
2018-06-30T01:42:18.818Z,75.98
2018-06-30T01:43:20.472Z,75.98
2018-06-30T01:44:12.075Z,76.36
2018-06-30T01:45:30.003Z,76.17
2018-06-30T01:46:31.851Z,75.98
2018-06-30T01:48:42.822Z,76.56
2018-06-30T01:49:51.839Z,76.84
2018-06-30T01:50:57.889Z,76.26
2018-06-30T01:53:01.794Z,76.17
2018-06-30T01:54:11.016Z,76.07
2018-06-30T01:55:13.893Z,76.26
2018-06-30T01:57:26.295Z,75.98
2018-06-30T01:58:33.879Z,76.65
2018-06-30T01:59:40.952Z,76.56
2018-06-30T02:01:50.282Z,76.61
2018-06-30T02:02:57.978Z,76.75
2018-06-30T02:04:04.019Z,76.61
2018-06-30T02:05:07.302Z,76.71
2018-06-30T02:06:12.532Z,77.00
2018-06-30T02:09:29.655Z,77.19
2018-06-30T02:10:41.639Z,76.81
2018-06-30T02:12:48.823Z,76.90
2018-06-30T02:13:57.636Z,77.09
2018-06-30T02:14:56.585Z,77.00
2018-06-30T02:16:05.330Z,76.71
2018-06-30T02:17:03.391Z,77.00
2018-06-30T02:18:07.698Z,76.81
2018-06-30T02:19:24.704Z,76.90
2018-06-30T02:20:17.966Z,77.00
2018-06-30T02:21:34.421Z,76.71
2018-06-30T02:22:32.505Z,77.00
2018-06-30T02:23:40.295Z,76.81
2018-06-30T02:24:45.831Z,77.19
2018-06-30T02:25:54.852Z,76.90
2018-06-30T02:27:09.807Z,76.81
2018-06-30T02:28:05.821Z,76.90
2018-06-30T02:29:11.049Z,77.00
2018-06-30T02:30:14.848Z,76.90
2018-06-30T02:31:14.753Z,76.81
2018-06-30T02:33:30.945Z,77.19
2018-06-30T02:35:46.111Z,77.25
2018-06-30T02:36:40.896Z,77.00
2018-06-30T02:37:45.000Z,77.38
2018-06-30T02:38:58.536Z,77.15
2018-06-30T02:40:06.414Z,77.15
2018-06-30T02:41:23.931Z,76.86
2018-06-30T02:43:21.081Z,76.86
2018-06-30T02:44:18.322Z,77.44
2018-06-30T02:45:34.609Z,76.77
2018-06-30T02:46:45.366Z,77.15
2018-06-30T02:47:40.600Z,77.06
2018-06-30T02:48:46.718Z,77.44
2018-06-30T02:49:48.561Z,77.92
2018-06-30T02:50:54.302Z,78.02
2018-06-30T02:52:01.579Z,77.73
2018-06-30T02:53:06.194Z,77.92
2018-06-30T02:54:09.787Z,77.69
2018-06-30T02:56:31.406Z,78.55
2018-06-30T02:58:42.892Z,79.17
2018-06-30T02:59:50.473Z,79.03
2018-06-30T03:00:59.797Z,78.75
2018-06-30T03:01:54.683Z,79.22
2018-06-30T03:03:07.389Z,79.80
2018-06-30T03:05:22.356Z,80.38
2018-06-30T03:06:27.992Z,80.66
2018-06-30T03:07:23.397Z,80.28
2018-06-30T03:08:28.319Z,79.80
2018-06-30T03:09:41.325Z,80.38
2018-06-30T03:10:34.982Z,80.76
2018-06-30T03:11:50.657Z,80.76
2018-06-30T03:13:06.440Z,80.86
2018-06-30T03:15:10.964Z,80.19
2018-06-30T03:16:12.700Z,80.47
2018-06-30T03:17:33.615Z,80.76
2018-06-30T03:18:35.446Z,80.66
2018-06-30T03:20:47.854Z,80.66
2018-06-30T03:21:46.019Z,81.05
2018-06-30T03:22:45.917Z,80.86
2018-06-30T03:24:55.360Z,81.24
2018-06-30T03:25:57.304Z,81.43
2018-06-30T03:27:13.123Z,81.34
2018-06-30T03:28:15.854Z,80.66
2018-06-30T03:29:23.949Z,80.96
2018-06-30T03:30:18.632Z,80.96
2018-06-30T03:31:30.897Z,79.80
2018-06-30T03:32:34.722Z,80.19
2018-06-30T03:33:55.926Z,79.90
2018-06-30T03:34:52.860Z,79.80
2018-06-30T03:35:47.851Z,79.90
2018-06-30T03:36:52.873Z,80.24
2018-06-30T03:38:10.801Z,80.09
2018-06-30T03:39:01.078Z,79.99
2018-06-30T03:40:40.101Z,80.34
2018-06-30T03:44:42.790Z,80.86
2018-06-30T03:45:36.960Z,81.10
2018-06-30T03:49:01.454Z,81.43
2018-06-30T03:49:59.822Z,81.63
2018-06-30T03:51:09.864Z,81.15
2018-06-30T03:52:07.416Z,81.63
2018-06-30T03:53:28.004Z,81.72
2018-06-30T03:54:13.673Z,81.53
2018-06-30T03:56:29.663Z,82.07
2018-06-30T03:58:05.100Z,81.68
2018-06-30T03:58:43.498Z,81.72
2018-06-30T03:59:58.969Z,81.72
2018-06-30T04:01:25.635Z,82.20
2018-06-30T04:02:34.209Z,82.20
2018-06-30T04:03:16.194Z,82.20
2018-06-30T04:04:11.487Z,82.20
2018-06-30T04:05:20.096Z,82.40
2018-06-30T04:06:23.278Z,82.30
2018-06-30T04:07:50.321Z,82.40
2018-06-30T04:08:40.903Z,82.97
2018-06-30T04:09:35.586Z,82.78
2018-06-30T04:11:05.595Z,82.97
2018-06-30T04:11:54.954Z,82.87
2018-06-30T04:13:10.222Z,83.26
2018-06-30T04:14:10.736Z,83.36
2018-06-30T04:15:22.416Z,83.26
2018-06-30T04:16:14.436Z,82.87
2018-06-30T04:17:20.177Z,83.16
2018-06-30T04:20:39.348Z,83.64
2018-06-30T04:21:39.969Z,83.84
2018-06-30T04:24:05.787Z,83.84
2018-06-30T04:24:49.512Z,84.22
2018-06-30T04:26:05.493Z,84.22
2018-06-30T04:27:29.360Z,84.22
2018-06-30T04:28:21.073Z,84.03
2018-06-30T04:30:36.448Z,84.22
2018-06-30T04:31:34.097Z,84.31
2018-06-30T04:33:38.001Z,84.22
2018-06-30T04:34:49.479Z,84.22
2018-06-30T04:35:54.813Z,84.12
2018-06-30T04:36:57.585Z,84.51
2018-06-30T04:38:08.647Z,84.22
2018-06-30T04:39:02.099Z,84.31
2018-06-30T04:40:09.581Z,84.31
2018-06-30T04:41:24.646Z,84.41
2018-06-30T04:42:17.176Z,84.60
2018-06-30T04:43:41.552Z,84.89
2018-06-30T04:44:31.018Z,84.89
2018-06-30T04:45:36.650Z,84.89
2018-06-30T04:46:49.661Z,84.80
2018-06-30T04:47:53.665Z,85.08
2018-06-30T04:48:53.464Z,84.99
2018-06-30T04:51:09.454Z,84.99
2018-06-30T04:52:22.465Z,84.94
2018-06-30T04:53:22.674Z,84.84
2018-06-30T04:54:17.564Z,84.84
2018-06-30T04:55:25.554Z,84.84
2018-06-30T04:58:44.315Z,84.84
2018-06-30T04:59:47.803Z,84.74
2018-06-30T05:01:12.898Z,84.84
2018-06-30T05:02:11.164Z,84.94
2018-06-30T05:03:01.955Z,84.55
2018-06-30T05:04:14.967Z,84.84
2018-06-30T05:05:25.726Z,84.74
2018-06-30T05:06:34.948Z,85.17
2018-06-30T05:09:32.101Z,84.21
2018-06-30T05:10:49.927Z,83.92
2018-06-30T05:15:05.215Z,83.83
2018-06-30T05:16:13.512Z,83.53
2018-06-30T05:17:19.560Z,82.86
2018-06-30T05:21:36.893Z,83.19
2018-06-30T05:22:46.014Z,83.19
2018-06-30T05:24:50.124Z,82.61
2018-06-30T05:26:09.074Z,82.23
2018-06-30T05:29:16.467Z,82.32
2018-06-30T05:30:29.479Z,82.04
2018-06-30T05:31:27.028Z,81.94
2018-06-30T05:32:38.503Z,81.56
2018-06-30T05:33:40.386Z,81.79
2018-06-30T05:34:46.095Z,81.70
2018-06-30T05:35:51.843Z,81.79
2018-06-30T05:36:57.578Z,81.30
2018-06-30T05:37:58.508Z,81.12
2018-06-30T05:39:10.495Z,81.21
2018-06-30T05:40:20.026Z,80.83
2018-06-30T05:41:22.684Z,80.83
2018-06-30T05:42:30.071Z,80.35
2018-06-30T05:43:28.133Z,81.02
2018-06-30T05:44:33.362Z,80.44
2018-06-30T05:45:45.967Z,79.58
2018-06-30T05:46:42.394Z,79.38
2018-06-30T05:50:03.808Z,79.43
2018-06-30T05:51:12.418Z,78.75
2018-06-30T05:52:18.875Z,78.75
2018-06-30T05:53:15.448Z,78.75
2018-06-30T05:54:19.605Z,78.36
2018-06-30T05:55:27.497Z,78.65
2018-06-30T05:56:27.813Z,78.46
2018-06-30T05:57:38.880Z,78.94
2018-06-30T05:58:49.534Z,78.56
2018-06-30T05:59:51.383Z,78.17
2018-06-30T06:00:59.137Z,78.36
2018-06-30T06:02:07.474Z,77.98
2018-06-30T06:03:08.249Z,77.98
2018-06-30T06:05:18.760Z,77.31
2018-06-30T06:07:36.078Z,76.57
2018-06-30T06:08:36.084Z,76.48
2018-06-30T06:09:41.890Z,76.09
2018-06-30T06:10:52.176Z,75.90
2018-06-30T06:11:49.212Z,75.61
2018-06-30T06:12:57.823Z,76.18
2018-06-30T06:14:01.924Z,75.61
2018-06-30T06:15:07.154Z,75.80
2018-06-30T06:16:17.502Z,75.51
2018-06-30T06:17:17.102Z,75.71
2018-06-30T06:18:32.159Z,76.18
2018-06-30T06:20:40.160Z,75.13
2018-06-30T06:21:51.434Z,75.13
2018-06-30T06:24:59.233Z,75.26
2018-06-30T06:26:11.530Z,75.23
2018-06-30T06:27:08.880Z,75.36
2018-06-30T06:28:15.331Z,75.45
2018-06-30T06:31:36.050Z,74.40
2018-06-30T06:32:35.820Z,74.01
2018-06-30T06:33:46.903Z,74.30
2018-06-30T06:34:53.063Z,73.14
2018-06-30T06:35:53.471Z,73.72
2018-06-30T06:38:12.429Z,73.14
2018-06-30T06:40:17.562Z,72.56
2018-06-30T06:41:26.076Z,72.95
2018-06-30T06:42:32.427Z,72.95
2018-06-30T06:43:33.250Z,72.75
2018-06-30T06:44:44.827Z,72.47
2018-06-30T06:45:52.719Z,72.56
2018-06-30T06:48:00.114Z,72.18
2018-06-30T06:49:00.402Z,72.79
2018-06-30T06:51:18.869Z,72.02
2018-06-30T06:52:24.000Z,72.41
2018-06-30T06:54:22.265Z,72.12
2018-06-30T06:55:38.658Z,71.54
2018-06-30T06:56:44.091Z,71.64
2018-06-30T06:57:49.935Z,71.44
2018-06-30T06:58:58.900Z,71.44
2018-06-30T07:00:18.900Z,71.34
2018-06-30T07:01:01.730Z,71.15
2018-06-30T07:02:11.473Z,70.96
2018-06-30T07:03:20.381Z,71.06
2018-06-30T07:04:16.294Z,71.44
2018-06-30T07:05:24.806Z,71.64
2018-06-30T07:06:32.697Z,71.48
2018-06-30T07:07:34.919Z,70.90
2018-06-30T07:08:39.050Z,71.00
2018-06-30T07:09:54.520Z,71.38
2018-06-30T07:10:55.553Z,71.38
2018-06-30T07:11:59.347Z,71.38
2018-06-30T07:13:05.904Z,71.00
2018-06-30T07:14:12.058Z,70.42
2018-06-30T07:15:17.390Z,70.13
2018-06-30T07:16:26.723Z,70.32
2018-06-30T07:17:37.476Z,70.51
2018-06-30T07:18:34.510Z,69.55
2018-06-30T07:19:35.132Z,69.35
2018-06-30T07:20:57.976Z,69.35
2018-06-30T07:22:02.394Z,69.58
2018-06-30T07:23:02.185Z,69.26
2018-06-30T07:23:57.278Z,69.97
2018-06-30T07:26:12.205Z,69.68
2018-06-30T07:27:18.504Z,69.29
2018-06-30T07:29:29.217Z,69.58
2018-06-30T07:31:32.346Z,69.78
2018-06-30T07:32:41.671Z,69.58
2018-06-30T07:34:00.911Z,68.81
2018-06-30T07:35:11.176Z,68.71
2018-06-30T07:36:06.779Z,68.43
2018-06-30T07:37:14.104Z,68.71
2018-06-30T07:40:28.618Z,68.33
2018-06-30T07:41:34.056Z,68.04
2018-06-30T07:43:44.715Z,67.27
2018-06-30T07:44:48.250Z,67.30
2018-06-30T07:45:53.227Z,67.01
2018-06-30T07:47:02.042Z,67.01
2018-06-30T07:49:07.080Z,67.49
2018-06-30T07:50:23.005Z,67.11
2018-06-30T07:51:14.980Z,66.72
2018-06-30T07:52:25.423Z,66.63
2018-06-30T07:53:23.280Z,66.33
2018-06-30T07:54:35.924Z,66.72
2018-06-30T07:57:05.796Z,66.24
2018-06-30T07:58:01.933Z,65.85
2018-06-30T07:58:56.928Z,66.14
2018-06-30T08:00:16.874Z,66.08
2018-06-30T08:01:24.665Z,66.14
2018-06-30T08:02:27.129Z,65.85
2018-06-30T08:03:45.060Z,65.98
2018-06-30T08:04:26.837Z,65.78
2018-06-30T08:05:41.177Z,65.50
2018-06-30T08:06:44.675Z,65.40
2018-06-30T08:09:09.570Z,65.98
2018-06-30T08:10:02.921Z,66.17
2018-06-30T08:11:07.223Z,65.78
2018-06-30T08:12:00.163Z,65.78
2018-06-30T08:13:55.892Z,65.88
2018-06-30T08:14:57.766Z,65.88
2018-06-30T08:15:41.934Z,65.11
2018-06-30T08:17:53.925Z,65.50
2018-06-30T08:18:47.106Z,65.59
2018-06-30T08:19:57.965Z,65.20
2018-06-30T08:21:02.079Z,65.59
2018-06-30T08:22:38.121Z,64.92
2018-06-30T08:23:35.873Z,65.20
2018-06-30T08:24:42.434Z,65.88
2018-06-30T08:25:39.172Z,65.40
2018-06-30T08:26:53.301Z,66.08
2018-06-30T08:27:55.928Z,64.92
2018-06-30T08:28:51.268Z,64.82
2018-06-30T08:29:58.445Z,64.43
2018-06-30T08:30:55.928Z,65.01
2018-06-30T08:32:36.550Z,65.11
2018-06-30T08:33:03.070Z,64.95
2018-06-30T08:34:09.221Z,64.47
2018-06-30T08:35:19.673Z,64.76
2018-06-30T08:36:46.816Z,64.27
2018-06-30T08:37:28.911Z,64.27
2018-06-30T08:38:48.783Z,63.50
2018-06-30T08:39:40.184Z,63.60
2018-06-30T08:41:55.934Z,64.37
2018-06-30T08:42:51.932Z,64.18
2018-06-30T08:44:00.177Z,64.21
2018-06-30T08:46:13.296Z,63.43
2018-06-30T08:47:14.431Z,63.53
2018-06-30T08:50:42.507Z,63.14
2018-06-30T08:52:35.659Z,62.69
2018-06-30T08:55:54.010Z,63.18
2018-06-30T08:57:00.123Z,62.79
2018-06-30T08:58:05.085Z,62.11
2018-06-30T08:59:12.053Z,62.11
2018-06-30T09:00:15.132Z,62.50
2018-06-30T09:02:31.120Z,61.72
2018-06-30T09:03:41.207Z,61.72
2018-06-30T09:04:37.178Z,62.01
2018-06-30T09:05:39.133Z,61.24
2018-06-30T09:06:53.162Z,60.85
2018-06-30T09:07:52.657Z,61.18
2018-06-30T09:08:54.209Z,60.88
2018-06-30T09:09:58.508Z,60.69
2018-06-30T09:11:09.940Z,60.30
2018-06-30T09:12:13.822Z,59.82
2018-06-30T09:13:21.774Z,59.63
2018-06-30T09:14:29.673Z,59.82
2018-06-30T09:15:41.858Z,59.23
2018-06-30T09:16:40.023Z,59.23
2018-06-30T09:17:45.763Z,59.23
2018-06-30T09:18:48.942Z,59.36
2018-06-30T09:19:58.269Z,59.17
2018-06-30T09:21:16.812Z,58.78
2018-06-30T09:22:09.686Z,59.36
2018-06-30T09:23:14.889Z,59.36
2018-06-30T09:24:18.637Z,59.36
2018-06-30T09:25:32.303Z,58.20
2018-06-30T09:27:32.518Z,58.20
2018-06-30T09:28:37.544Z,58.39
2018-06-30T09:30:50.470Z,57.91
2018-06-30T09:31:59.682Z,57.62
2018-06-30T09:33:22.015Z,56.94
2018-06-30T09:34:07.610Z,56.77
2018-06-30T09:35:27.145Z,56.59
2018-06-30T09:38:36.791Z,56.77
2018-06-30T09:39:41.956Z,56.29
2018-06-30T09:40:42.641Z,55.42
2018-06-30T09:41:51.866Z,55.32
2018-06-30T09:44:09.206Z,55.13
2018-06-30T09:45:01.205Z,55.22
2018-06-30T09:46:01.825Z,54.74
2018-06-30T09:47:18.318Z,54.06
2018-06-30T09:48:30.615Z,55.52
2018-06-30T09:49:32.873Z,55.35
2018-06-30T09:51:35.856Z,53.39
2018-06-30T09:52:41.497Z,53.29
2018-06-30T09:53:46.417Z,52.22
2018-06-30T09:54:45.714Z,52.15
2018-06-30T09:55:55.752Z,51.93
2018-06-30T09:57:06.612Z,51.76
2018-06-30T09:59:06.314Z,51.18
2018-06-30T10:01:29.984Z,51.67
2018-06-30T10:02:36.962Z,50.89
2018-06-30T10:03:36.346Z,50.89
2018-06-30T10:04:43.828Z,51.09
2018-06-30T10:05:44.553Z,50.50
2018-06-30T10:06:53.160Z,50.12
2018-06-30T10:08:56.452Z,50.31
2018-06-30T10:10:06.904Z,49.95
2018-06-30T10:11:23.908Z,49.34
2018-06-30T10:13:26.277Z,50.14
2018-06-30T10:14:28.541Z,50.34
2018-06-30T10:16:35.717Z,49.85
2018-06-30T10:19:58.573Z,49.46
2018-06-30T10:21:02.725Z,49.17
2018-06-30T10:22:11.696Z,50.24
2018-06-30T10:23:16.413Z,50.16
2018-06-30T10:24:24.202Z,47.35
2018-06-30T10:25:25.640Z,47.74
2018-06-30T10:26:26.262Z,45.51
2018-06-30T10:30:03.558Z,44.34
2018-06-30T10:30:52.730Z,45.61
2018-06-30T10:32:04.493Z,45.21
2018-06-30T10:32:59.380Z,44.15
2018-06-30T10:34:01.031Z,44.15
2018-06-30T10:35:25.914Z,45.02
2018-06-30T10:36:15.068Z,44.27
2018-06-30T10:37:37.965Z,41.84
2018-06-30T10:39:43.459Z,42.81
2018-06-30T10:42:59.454Z,44.07
2018-06-30T10:45:07.346Z,44.68
2018-06-30T10:48:18.220Z,44.09
2018-06-30T10:49:39.937Z,43.51
2018-06-30T10:50:55.508Z,43.71
2018-06-30T10:51:43.123Z,42.18
2018-06-30T10:52:42.926Z,42.08
2018-06-30T10:53:46.619Z,41.69
2018-06-30T10:56:05.481Z,40.72
2018-06-30T10:57:23.856Z,40.23
2018-06-30T10:58:03.747Z,40.52
2018-06-30T10:59:17.783Z,40.23
2018-06-30T11:01:23.858Z,39.84
2018-06-30T11:02:41.971Z,40.62
2018-06-30T11:03:43.513Z,40.62
2018-06-30T11:04:44.646Z,40.25
2018-06-30T11:06:00.875Z,38.29
2018-06-30T11:07:02.786Z,37.90
2018-06-30T11:10:15.725Z,39.96
2018-06-30T11:11:17.260Z,38.98
2018-06-30T11:13:34.058Z,40.06
2018-06-30T11:16:54.970Z,38.70
2018-06-30T11:17:56.310Z,39.18
2018-06-30T11:19:02.867Z,38.79
2018-06-30T11:21:18.957Z,38.32
2018-06-30T11:23:18.970Z,37.52
2018-06-30T11:24:16.315Z,37.74
2018-06-30T11:25:33.218Z,36.96
2018-06-30T11:26:45.208Z,36.47
2018-06-30T11:27:42.653Z,37.35
2018-06-30T11:28:49.740Z,37.64
2018-06-30T11:29:55.365Z,36.47
2018-06-30T11:30:59.774Z,36.77
2018-06-30T11:32:06.650Z,37.26
2018-06-30T11:33:09.004Z,37.84
2018-06-30T11:34:17.714Z,36.96
2018-06-30T11:35:14.965Z,36.69
2018-06-30T11:36:31.451Z,37.46
2018-06-30T11:37:31.353Z,36.49
2018-06-30T11:38:36.593Z,35.71
2018-06-30T11:39:44.380Z,36.10
2018-06-30T11:40:46.162Z,36.59
2018-06-30T11:43:10.609Z,37.37
2018-06-30T11:45:14.419Z,36.49
2018-06-30T11:47:21.988Z,35.42
2018-06-30T11:48:29.280Z,35.61
2018-06-30T11:49:29.190Z,34.84
2018-06-30T11:50:37.493Z,34.16
2018-06-30T11:51:45.896Z,34.16
2018-06-30T11:52:50.809Z,34.37
2018-06-30T11:53:56.389Z,34.37
2018-06-30T11:55:02.293Z,33.77
2018-06-30T11:56:07.316Z,33.78
2018-06-30T11:57:17.463Z,33.78
2018-06-30T11:58:12.667Z,34.17
2018-06-30T11:59:28.892Z,33.11
2018-06-30T12:00:27.414Z,33.01
2018-06-30T12:01:31.618Z,33.01
2018-06-30T12:02:43.711Z,33.59
2018-06-30T12:03:45.773Z,33.39
2018-06-30T12:04:50.892Z,33.20
2018-06-30T12:06:02.778Z,33.39
2018-06-30T12:08:03.403Z,33.29
2018-06-30T12:09:14.393Z,33.49
2018-06-30T12:10:15.501Z,32.91
2018-06-30T12:11:22.168Z,31.93
2018-06-30T12:12:28.008Z,32.13
2018-06-30T12:13:31.600Z,31.93
2018-06-30T12:14:43.004Z,32.52
2018-06-30T12:15:57.417Z,32.23
2018-06-30T12:16:58.143Z,32.52
2018-06-30T12:18:00.196Z,32.13
2018-06-30T12:18:57.131Z,31.93
2018-06-30T12:20:13.729Z,32.52
2018-06-30T12:21:16.704Z,32.32
2018-06-30T12:22:19.372Z,32.23
2018-06-30T12:23:22.667Z,31.74
2018-06-30T12:24:31.408Z,30.87
2018-06-30T12:25:40.283Z,30.77
2018-06-30T12:26:47.267Z,30.87
2018-06-30T12:27:53.914Z,32.71
2018-06-30T12:28:58.738Z,32.23
2018-06-30T12:29:54.031Z,31.35
2018-06-30T12:31:07.454Z,30.87
2018-06-30T12:32:05.424Z,30.78
2018-06-30T12:33:21.188Z,29.79
2018-06-30T12:34:19.457Z,29.30
2018-06-30T12:35:22.029Z,29.79
2018-06-30T12:36:32.472Z,28.23
2018-06-30T12:37:31.885Z,28.43
2018-06-30T12:38:35.047Z,29.21
2018-06-30T12:39:46.011Z,29.02
2018-06-30T12:40:50.113Z,29.21
2018-06-30T12:41:57.392Z,29.60
2018-06-30T12:43:06.613Z,29.69
2018-06-30T12:44:09.291Z,28.53
2018-06-30T12:45:22.091Z,29.40
2018-06-30T12:46:14.221Z,29.89
2018-06-30T12:47:28.043Z,30.57
2018-06-30T12:48:28.869Z,29.79
2018-06-30T12:49:32.562Z,28.63
2018-06-30T12:50:53.252Z,29.52
2018-06-30T12:51:52.238Z,29.71
2018-06-30T12:52:50.710Z,29.81
2018-06-30T12:53:57.677Z,28.54
2018-06-30T12:55:02.805Z,28.64
2018-06-30T12:57:19.100Z,28.83
2018-06-30T12:59:23.926Z,28.93
2018-06-30T13:00:27.107Z,29.52
2018-06-30T13:01:43.399Z,29.42
2018-06-30T13:02:41.866Z,28.64
2018-06-30T13:03:54.860Z,29.13
2018-06-30T13:04:50.891Z,29.81
2018-06-30T13:05:59.935Z,29.22
2018-06-30T13:07:01.964Z,29.32
2018-06-30T13:08:09.352Z,28.93
2018-06-30T13:10:14.068Z,29.13
2018-06-30T13:11:28.439Z,29.03
2018-06-30T13:12:35.073Z,29.32
2018-06-30T13:15:57.630Z,28.64
2018-06-30T13:17:51.596Z,28.34
2018-06-30T13:19:08.803Z,28.44
2018-06-30T13:20:21.108Z,28.34
2018-06-30T13:21:15.781Z,28.93
2018-06-30T13:22:27.256Z,28.74
2018-06-30T13:24:27.989Z,28.74
2018-06-30T13:25:38.849Z,28.33
2018-06-30T13:27:53.096Z,28.23
2018-06-30T13:29:01.192Z,29.40
2018-06-30T13:30:03.249Z,28.63
2018-06-30T13:31:08.373Z,28.53
2018-06-30T13:32:23.437Z,28.53
2018-06-30T13:33:16.579Z,29.30
2018-06-30T13:34:22.631Z,29.02
2018-06-30T13:35:25.810Z,28.14
2018-06-30T13:36:29.931Z,28.82
2018-06-30T13:37:42.719Z,29.11
2018-06-30T13:39:52.462Z,29.30
2018-06-30T13:41:02.708Z,29.61
2018-06-30T13:41:56.476Z,29.89
2018-06-30T13:43:15.841Z,29.40
2018-06-30T13:44:09.293Z,28.04
2018-06-30T13:45:21.782Z,28.43
2018-06-30T13:46:23.596Z,28.93
2018-06-30T13:47:32.035Z,28.33
2018-06-30T13:48:29.489Z,28.15
2018-06-30T13:49:37.372Z,28.33
2018-06-30T13:50:47.417Z,28.33
2018-06-30T13:51:46.910Z,28.82
2018-06-30T13:52:53.369Z,28.23
2018-06-30T13:54:01.773Z,28.23
2018-06-30T13:55:04.446Z,27.94
2018-06-30T13:56:13.766Z,28.04
2018-06-30T13:58:20.539Z,27.45
2018-06-30T13:59:25.664Z,27.84
2018-06-30T14:00:31.817Z,28.33
2018-06-30T14:01:32.752Z,28.14
2018-06-30T14:02:44.118Z,28.04
2018-06-30T14:04:51.826Z,28.92
2018-06-30T14:06:02.071Z,28.82
2018-06-30T14:08:12.724Z,28.63
2018-06-30T14:09:19.385Z,28.43
2018-06-30T14:10:19.493Z,28.14
2018-06-30T14:11:28.102Z,28.04
2018-06-30T14:12:32.000Z,27.55
2018-06-30T14:13:48.800Z,26.67
2018-06-30T14:15:51.785Z,26.18
2018-06-30T14:16:56.706Z,26.37
2018-06-30T14:18:06.850Z,25.98
2018-06-30T14:19:13.821Z,26.37
2018-06-30T14:21:22.027Z,26.18
2018-06-30T14:22:31.154Z,26.86
2018-06-30T14:23:31.308Z,27.25
2018-06-30T14:25:45.096Z,25.87
2018-06-30T14:26:44.598Z,26.07
2018-06-30T14:27:46.647Z,25.97
2018-06-30T14:29:05.392Z,26.46
2018-06-30T14:30:01.815Z,26.65
2018-06-30T14:31:04.996Z,26.46
2018-06-30T14:32:11.042Z,26.36
2018-06-30T14:33:18.422Z,25.97
2018-06-30T14:34:29.597Z,26.46
2018-06-30T14:35:37.081Z,26.65
2018-06-30T14:36:32.064Z,26.07
2018-06-30T14:38:45.593Z,25.09
2018-06-30T14:39:48.773Z,26.17
2018-06-30T14:40:59.124Z,26.17
2018-06-30T14:42:05.076Z,26.07
2018-06-30T14:44:12.045Z,25.29
2018-06-30T14:46:35.612Z,25.87
2018-06-30T14:47:30.806Z,25.09
2018-06-30T14:48:31.938Z,25.29
2018-06-30T14:49:44.856Z,25.38
2018-06-30T14:50:49.155Z,25.78
2018-06-30T14:51:49.777Z,26.75
2018-06-30T14:53:01.867Z,26.55
2018-06-30T14:54:06.382Z,25.87
2018-06-30T14:55:10.793Z,25.97
2018-06-30T14:58:21.054Z,25.48
2018-06-30T14:59:36.006Z,24.90
2018-06-30T15:00:48.813Z,25.09
2018-06-30T15:01:44.832Z,25.97
2018-06-30T15:03:04.703Z,25.09
2018-06-30T15:03:54.058Z,25.09
2018-06-30T15:05:02.153Z,25.38
2018-06-30T15:06:04.623Z,26.75
2018-06-30T15:07:16.912Z,26.17
2018-06-30T15:11:28.920Z,26.84
2018-06-30T15:12:33.331Z,26.84
2018-06-30T15:13:48.910Z,26.65
2018-06-30T15:15:59.056Z,26.07
2018-06-30T15:17:04.053Z,26.07
2018-06-30T15:18:04.495Z,25.58
2018-06-30T15:19:10.054Z,26.17
2018-06-30T15:21:31.089Z,26.07
2018-06-30T15:22:31.760Z,25.97
2018-06-30T15:23:42.110Z,25.96
2018-06-30T15:24:40.102Z,25.97
2018-06-30T15:25:45.311Z,25.97
2018-06-30T15:26:49.094Z,25.57
2018-06-30T15:28:59.662Z,26.07
2018-06-30T15:30:04.785Z,25.97
2018-06-30T15:31:07.655Z,26.36
2018-06-30T15:32:26.506Z,25.37
2018-06-30T15:34:28.975Z,25.47
2018-06-30T15:35:39.324Z,25.27
2018-06-30T15:36:38.534Z,25.78
2018-06-30T15:39:50.445Z,26.06
2018-06-30T15:41:08.645Z,25.86
2018-06-30T15:42:06.707Z,26.07
2018-06-30T15:44:18.061Z,25.09
2018-06-30T15:45:23.634Z,25.38
2018-06-30T15:46:31.924Z,24.71
2018-06-30T15:47:38.494Z,24.99
2018-06-30T15:48:37.262Z,24.61
2018-06-30T15:49:47.204Z,24.22
2018-06-30T15:50:52.328Z,24.12
2018-06-30T15:51:59.402Z,24.40
2018-06-30T15:53:09.143Z,24.69
2018-06-30T15:54:06.271Z,24.40
2018-06-30T15:55:13.759Z,24.22
2018-06-30T15:56:18.377Z,24.69
2018-06-30T15:57:31.691Z,25.08
2018-06-30T15:58:42.150Z,25.18
2018-06-30T15:59:42.867Z,26.44
2018-06-30T16:00:36.739Z,25.96
2018-06-30T16:01:52.067Z,25.18
2018-06-30T16:02:57.068Z,25.27
2018-06-30T16:03:57.068Z,25.37
2018-06-30T16:05:01.056Z,25.47
2018-06-30T16:06:09.020Z,24.30
2018-06-30T16:08:19.172Z,23.52
2018-06-30T16:09:31.071Z,23.04
2018-06-30T16:10:38.948Z,23.14
2018-06-30T16:11:33.529Z,23.52
2018-06-30T16:12:43.164Z,23.52
2018-06-30T16:13:52.589Z,23.04
2018-06-30T16:16:03.048Z,23.04
2018-06-30T16:18:16.474Z,23.52
2018-06-30T16:19:25.398Z,22.94
2018-06-30T16:20:31.645Z,22.55
2018-06-30T16:21:28.219Z,23.24
2018-06-30T16:22:26.948Z,22.85
2018-06-30T16:24:43.966Z,22.94
2018-06-30T16:25:53.183Z,24.01
2018-06-30T16:27:04.248Z,22.55
2018-06-30T16:27:54.220Z,22.45
2018-06-30T16:29:07.239Z,22.36
2018-06-30T16:30:14.151Z,22.94
2018-06-30T16:32:15.852Z,22.94
2018-06-30T16:33:29.582Z,22.55
2018-06-30T16:34:35.527Z,22.85
2018-06-30T16:35:42.092Z,22.55
2018-06-30T16:36:55.509Z,22.66
2018-06-30T16:37:45.379Z,23.05
2018-06-30T16:39:58.396Z,22.56
2018-06-30T16:41:06.288Z,22.66
2018-06-30T16:42:08.445Z,22.47
2018-06-30T16:43:16.439Z,21.88
2018-06-30T16:44:20.963Z,21.68
2018-06-30T16:45:34.582Z,22.16
2018-06-30T16:46:33.153Z,22.94
2018-06-30T16:47:39.200Z,21.97
2018-06-30T16:48:37.263Z,21.78
2018-06-30T16:49:45.563Z,22.55
2018-06-30T16:50:54.377Z,21.68
2018-06-30T16:53:07.498Z,22.55
2018-06-30T16:55:23.248Z,21.78
2018-06-30T16:56:22.980Z,21.09
2018-06-30T16:57:25.956Z,21.29
2018-06-30T16:58:42.274Z,21.09
2018-06-30T16:59:42.463Z,21.78
2018-06-30T17:01:00.282Z,21.58